Time;durP1;ratioP1;P1;durP2;ratioP2;P2;SDS_P1;SDS_P2;PMS_P1;PMS_P2;Temp;Humidity;BMP_temperature;BMP_pressure;BME280_temperature;BME280_humidity;BME280_pressure;Samples;Min_cycle;Max_cycle;Signal;HPM_P1;HPM_P2
2021/11/09 00:00:23;;;;;;;24.13;21.33;;;0.90;99.90;;;;;;4992862;28;20482;-80
2021/11/09 00:02:52;;;;;;;23.70;20.70;;;0.90;99.90;;;;;;4984805;28;20965;-80
2021/11/09 00:05:21;;;;;;;23.07;20.63;;;0.80;99.90;;;;;;4992347;28;20799;-80
2021/11/09 00:07:49;;;;;;;23.43;20.80;;;0.80;99.90;;;;;;4992526;28;20481;-80
2021/11/09 00:10:17;;;;;;;21.47;19.33;;;0.80;99.90;;;;;;4992231;28;20449;-80
2021/11/09 00:12:46;;;;;;;25.57;21.03;;;0.80;99.90;;;;;;4993661;28;20472;-80
2021/11/09 00:15:15;;;;;;;22.60;20.50;;;0.80;99.90;;;;;;4993633;28;20531;-79
2021/11/09 00:17:42;;;;;;;23.80;21.50;;;0.80;99.90;;;;;;4992533;28;20871;-80
2021/11/09 00:20:12;;;;;;;26.10;22.13;;;0.80;99.90;;;;;;4993915;28;20441;-80
2021/11/09 00:22:39;;;;;;;24.20;21.87;;;0.80;99.90;;;;;;4996459;28;20444;-80
2021/11/09 00:25:07;;;;;;;26.43;21.13;;;0.70;99.90;;;;;;4995487;28;20452;-80
2021/11/09 00:27:34;;;;;;;22.70;20.40;;;0.70;99.90;;;;;;4993544;28;20483;-80
2021/11/09 00:30:01;;;;;;;24.93;22.00;;;0.70;99.90;;;;;;4996088;28;20502;-80
2021/11/09 00:32:28;;;;;;;26.70;21.87;;;0.60;99.90;;;;;;4994148;28;20476;-80
2021/11/09 00:34:55;;;;;;;23.87;21.37;;;0.60;99.90;;;;;;4994847;28;20444;-80
2021/11/09 00:37:23;;;;;;;24.60;21.77;;;0.70;99.90;;;;;;4994753;28;20463;-80
2021/11/09 00:39:51;;;;;;;24.60;21.97;;;0.70;99.90;;;;;;4992857;28;20500;-80
2021/11/09 00:42:18;;;;;;;25.00;22.13;;;0.70;99.90;;;;;;4993261;28;20460;-80
2021/11/09 00:44:45;;;;;;;24.07;21.57;;;0.60;99.90;;;;;;4993100;28;20543;-80
2021/11/09 00:47:12;;;;;;;27.03;21.97;;;0.60;99.90;;;;;;4999611;23;20553;-81
2021/11/09 00:49:39;;;;;;;25.27;22.70;;;0.60;99.90;;;;;;4954386;29;20466;-81
2021/11/09 00:52:06;;;;;;;24.73;22.07;;;0.60;99.90;;;;;;4954555;29;20538;-81
2021/11/09 00:54:35;;;;;;;23.03;20.67;;;0.50;99.90;;;;;;4955355;29;20478;-80
2021/11/09 00:57:03;;;;;;;24.33;21.93;;;0.50;99.90;;;;;;4955282;28;20517;-81
2021/11/09 00:59:30;;;;;;;24.03;21.50;;;0.50;99.90;;;;;;4955097;29;20887;-81
2021/11/09 01:01:58;;;;;;;26.93;21.47;;;0.50;99.90;;;;;;4956636;28;20431;-81
2021/11/09 01:04:25;;;;;;;23.37;20.90;;;0.50;99.90;;;;;;4958414;28;20474;-82
2021/11/09 01:06:52;;;;;;;24.37;21.93;;;0.60;99.90;;;;;;4959643;28;20552;-81
2021/11/09 01:09:20;;;;;;;27.60;21.93;;;0.50;99.90;;;;;;4958878;29;20462;-81
2021/11/09 01:11:48;;;;;;;25.43;21.87;;;0.50;99.90;;;;;;4959083;28;20461;-80
2021/11/09 01:14:15;;;;;;;26.57;22.17;;;0.50;99.90;;;;;;4960448;28;20489;-80
2021/11/09 01:16:42;;;;;;;24.70;21.80;;;0.40;99.90;;;;;;4959151;28;20471;-81
2021/11/09 01:19:09;;;;;;;25.73;23.07;;;0.40;99.90;;;;;;4958415;29;20979;-80
2021/11/09 01:21:37;;;;;;;24.53;21.87;;;0.40;99.90;;;;;;4959224;29;20450;-81
2021/11/09 01:24:05;;;;;;;25.30;22.53;;;0.40;99.90;;;;;;4956708;28;20450;-80
2021/11/09 01:26:33;;;;;;;24.73;21.53;;;0.40;99.90;;;;;;4960022;28;20465;-81
2021/11/09 01:29:04;;;;;;;24.87;21.83;;;0.40;99.90;;;;;;4958359;29;20947;-80
2021/11/09 01:31:31;;;;;;;25.47;22.57;;;0.40;99.90;;;;;;4958648;28;20465;-81
2021/11/09 01:33:58;;;;;;;24.47;21.97;;;0.30;99.90;;;;;;4959072;29;20561;-81
2021/11/09 01:36:25;;;;;;;23.87;21.53;;;0.30;99.90;;;;;;4959745;28;20542;-81
2021/11/09 01:38:52;;;;;;;24.13;21.87;;;0.30;99.90;;;;;;4950876;28;20509;-81
2021/11/09 01:41:20;;;;;;;26.57;21.30;;;0.30;99.90;;;;;;4962745;28;20446;-81
2021/11/09 01:43:47;;;;;;;24.40;22.00;;;0.30;99.90;;;;;;4958405;29;20568;-81
2021/11/09 01:46:17;;;;;;;25.90;22.07;;;0.30;99.90;;;;;;4952958;28;20478;-80
2021/11/09 01:48:44;;;;;;;23.83;21.50;;;0.20;99.90;;;;;;4958047;29;20450;-80
2021/11/09 01:51:14;;;;;;;23.37;20.87;;;0.20;99.90;;;;;;4959725;29;21037;-81
2021/11/09 01:53:42;;;;;;;24.30;21.67;;;0.20;99.90;;;;;;4959639;28;20478;-80
2021/11/09 01:56:13;;;;;;;22.77;20.53;;;0.10;99.90;;;;;;4954352;28;20474;-80
2021/11/09 01:58:40;;;;;;;24.00;21.00;;;0.10;99.90;;;;;;4951774;28;20517;-80
2021/11/09 02:01:10;;;;;;;23.40;21.10;;;0.10;99.90;;;;;;4958470;28;20458;-81
2021/11/09 02:03:42;;;;;;;24.60;22.13;;;0.20;99.90;;;;;;4959761;29;20934;-81
2021/11/09 02:06:10;;;;;;;24.40;20.97;;;0.20;99.90;;;;;;4959354;28;20466;-82
2021/11/09 02:08:37;;;;;;;26.20;21.90;;;0.20;99.90;;;;;;4959536;28;20854;-81
2021/11/09 02:11:05;;;;;;;25.00;22.13;;;0.20;99.90;;;;;;4958369;29;20505;-81
2021/11/09 02:13:32;;;;;;;27.40;21.17;;;0.20;99.90;;;;;;4957363;29;20560;-81
2021/11/09 02:15:59;;;;;;;28.87;21.00;;;0.20;99.90;;;;;;4959066;28;20983;-82
2021/11/09 02:18:28;;;;;;;22.40;20.10;;;0.20;99.90;;;;;;4956218;28;20466;-81
2021/11/09 02:20:58;;;;;;;23.57;21.23;;;0.20;99.90;;;;;;4957988;28;20906;-80
2021/11/09 02:23:25;;;;;;;25.23;21.10;;;0.20;99.90;;;;;;4959665;28;20857;-82
2021/11/09 02:25:52;;;;;;;24.43;21.10;;;0.20;99.90;;;;;;4959667;28;20434;-81
2021/11/09 02:28:19;;;;;;;23.60;21.03;;;0.20;99.90;;;;;;4957432;28;20466;-82
2021/11/09 02:30:47;;;;;;;22.60;20.60;;;0.20;99.90;;;;;;4958343;29;20446;-81
2021/11/09 02:33:14;;;;;;;22.70;20.53;;;0.20;99.90;;;;;;4958285;29;20482;-80
2021/11/09 02:35:42;;;;;;;22.67;20.67;;;0.20;99.90;;;;;;4958074;29;20450;-81
2021/11/09 02:38:11;;;;;;;23.73;21.30;;;0.20;99.90;;;;;;4958976;28;20816;-81
2021/11/09 02:40:41;;;;;;;23.40;20.83;;;0.20;99.90;;;;;;4959737;28;20466;-81
2021/11/09 02:43:14;;;;;;;24.03;21.10;;;0.20;99.90;;;;;;4953734;28;20509;-82
2021/11/09 02:45:48;;;;;;;23.30;21.00;;;0.20;99.90;;;;;;4958040;28;20453;-81
2021/11/09 02:48:18;;;;;;;24.00;21.53;;;0.20;99.90;;;;;;4953353;28;20450;-80
2021/11/09 02:50:48;;;;;;;23.37;20.97;;;0.20;99.90;;;;;;4958735;28;20442;-81
2021/11/09 02:53:26;;;;;;;23.13;21.03;;;0.10;99.90;;;;;;4952616;28;20550;-81
2021/11/09 02:55:58;;;;;;;24.27;21.70;;;0.10;99.90;;;;;;4951899;28;20485;-81
2021/11/09 02:58:30;;;;;;;24.37;21.87;;;0.00;99.90;;;;;;4957255;29;20447;-81
2021/11/09 03:01:06;;;;;;;22.97;20.53;;;0.00;99.90;;;;;;4957756;29;20519;-81
2021/11/09 03:03:36;;;;;;;23.10;20.80;;;0.00;99.90;;;;;;4958889;28;20505;-82
2021/11/09 03:06:17;;;;;;;24.57;22.07;;;0.00;99.90;;;;;;4957487;28;20493;-79
2021/11/09 03:08:50;;;;;;;23.80;20.90;;;-0.10;99.90;;;;;;4956974;29;20458;-81
2021/11/09 03:11:17;;;;;;;23.40;20.97;;;-0.10;99.90;;;;;;4957293;29;20504;-81
2021/11/09 03:13:45;;;;;;;23.67;21.23;;;-0.10;99.90;;;;;;4956988;29;20502;-81
2021/11/09 03:16:13;;;;;;;22.83;20.63;;;-0.10;99.90;;;;;;4959320;28;20462;-80
2021/11/09 03:18:44;;;;;;;25.73;21.37;;;-0.10;99.90;;;;;;4952523;28;20470;-81
2021/11/09 03:40:31;;;;;;;21.13;19.43;;;-0.20;99.90;;;;;;4957736;29;20446;-81
2021/11/09 03:45:46;;;;;;;22.63;20.63;;;0.00;99.90;;;;;;4962932;28;20430;-80
2021/11/09 03:48:16;;;;;;;22.77;20.73;;;0.10;99.90;;;;;;4948827;29;20490;-81
2021/11/09 03:50:45;;;;;;;22.37;20.00;;;0.20;99.90;;;;;;4958394;28;20454;-81
2021/11/09 03:53:16;;;;;;;22.50;20.40;;;0.10;99.90;;;;;;4959982;28;20446;-79
2021/11/09 03:58:42;;;;;;;21.80;19.53;;;0.20;99.90;;;;;;4938473;28;20459;-82
2021/11/09 04:01:11;;;;;;;21.33;19.53;;;0.10;99.90;;;;;;4962343;28;20431;-79
2021/11/09 04:03:55;;;;;;;21.93;19.97;;;0.00;99.90;;;;;;4962812;28;20470;-79
2021/11/09 04:06:32;;;;;;;21.73;19.83;;;-0.20;99.90;;;;;;4960276;28;20458;-79
2021/11/09 04:09:04;;;;;;;20.90;18.90;;;-0.10;99.90;;;;;;4959462;28;20434;-79
2021/11/09 04:11:41;;;;;;;20.80;19.00;;;-0.10;99.90;;;;;;4961311;28;20438;-78
2021/11/09 04:14:16;;;;;;;20.60;18.90;;;-0.10;99.90;;;;;;4962080;28;20525;-78
2021/11/09 04:16:48;;;;;;;19.63;18.13;;;-0.20;99.90;;;;;;4959327;28;20470;-80
2021/11/09 04:27:43;;;;;;;20.43;18.90;;;-0.40;99.90;;;;;;4955595;28;20454;-79
2021/11/09 05:01:34;;;;;;;23.77;21.67;;;-0.30;99.90;;;;;;5118863;28;20503;-80
2021/11/09 05:09:41;;;;;;;23.63;21.60;;;-0.20;99.90;;;;;;5123400;28;20426;-80
2021/11/09 05:12:08;;;;;;;23.90;21.90;;;-0.20;99.90;;;;;;5131878;28;20458;-81
2021/11/09 05:14:36;;;;;;;23.67;21.63;;;-0.10;99.90;;;;;;5133408;27;20470;-82
2021/11/09 05:17:03;;;;;;;23.10;21.20;;;-0.10;99.90;;;;;;5133255;27;20482;-81
2021/11/09 05:19:31;;;;;;;23.63;21.63;;;-0.10;99.90;;;;;;5133127;27;20462;-81
2021/11/09 05:21:57;;;;;;;22.63;20.73;;;-0.10;99.90;;;;;;5116998;27;20475;-80
2021/11/09 05:24:24;;;;;;;24.03;21.87;;;0.00;99.90;;;;;;5118013;27;20503;-81
2021/11/09 05:26:52;;;;;;;22.83;20.80;;;0.10;99.90;;;;;;5107486;28;20810;-80
2021/11/09 05:29:19;;;;;;;24.07;21.90;;;0.10;99.90;;;;;;5109096;27;20436;-81
2021/11/09 05:31:46;;;;;;;26.13;21.03;;;0.20;99.90;;;;;;5119413;28;20441;-81
2021/11/09 05:34:13;;;;;;;24.23;21.83;;;0.00;99.90;;;;;;5119166;27;20477;-81
2021/11/09 05:36:42;;;;;;;22.93;20.93;;;0.10;99.90;;;;;;5122041;28;20803;-81
2021/11/09 05:39:15;;;;;;;22.20;20.20;;;0.10;99.90;;;;;;5114166;28;20452;-81
2021/11/09 05:41:44;;;;;;;23.03;20.80;;;0.00;99.90;;;;;;5115921;28;20510;-81
2021/11/09 05:44:12;;;;;;;22.27;20.30;;;0.00;99.90;;;;;;5112655;28;20534;-81
2021/11/09 05:46:41;;;;;;;21.63;19.97;;;0.00;99.90;;;;;;5096908;28;20477;-79
2021/11/09 05:49:08;;;;;;;20.87;19.10;;;0.00;99.90;;;;;;5097181;28;20456;-81
2021/11/09 05:51:36;;;;;;;22.47;20.57;;;0.10;99.90;;;;;;5102013;28;20432;-81
2021/11/09 05:54:03;;;;;;;21.40;19.63;;;0.10;99.90;;;;;;5098574;28;20471;-80
2021/11/09 05:56:31;;;;;;;20.90;19.30;;;0.20;99.90;;;;;;5103388;28;20838;-81
2021/11/09 05:58:58;;;;;;;20.97;19.40;;;0.10;99.90;;;;;;5103969;28;20444;-82
2021/11/09 06:01:27;;;;;;;20.87;19.27;;;0.10;99.90;;;;;;5102314;28;20447;-82
2021/11/09 06:03:54;;;;;;;21.27;19.63;;;0.10;99.90;;;;;;5095693;28;20439;-80
2021/11/09 06:06:20;;;;;;;21.80;19.97;;;0.10;99.90;;;;;;5098693;28;20464;-80
2021/11/09 06:08:50;;;;;;;20.30;18.77;;;0.10;99.90;;;;;;5109825;28;20500;-81
2021/11/09 06:11:17;;;;;;;20.47;18.77;;;0.00;99.90;;;;;;5102381;28;20455;-80
2021/11/09 06:13:44;;;;;;;21.13;19.43;;;0.00;99.90;;;;;;5097595;28;20524;-80
2021/11/09 06:16:11;;;;;;;22.13;20.17;;;0.00;99.90;;;;;;5100778;28;20899;-81
2021/11/09 06:18:39;;;;;;;21.10;19.50;;;-0.10;99.90;;;;;;5099931;28;20473;-81
2021/11/09 06:21:06;;;;;;;21.70;20.00;;;-0.10;99.90;;;;;;5099434;28;20463;-80
2021/11/09 06:23:33;;;;;;;22.13;20.53;;;0.00;99.90;;;;;;5097646;28;20451;-81
2021/11/09 06:26:00;;;;;;;21.10;19.30;;;0.00;99.90;;;;;;5099511;28;20468;-81
2021/11/09 06:28:27;;;;;;;21.63;19.90;;;0.00;99.90;;;;;;5100977;28;20440;-81
2021/11/09 06:30:54;;;;;;;22.67;20.90;;;0.00;99.90;;;;;;5094887;28;20470;-81
2021/11/09 06:33:22;;;;;;;21.87;19.93;;;-0.10;99.90;;;;;;5101007;28;20448;-81
2021/11/09 06:35:51;;;;;;;22.00;20.10;;;0.00;99.90;;;;;;5105736;28;20984;-81
2021/11/09 06:38:19;;;;;;;20.97;19.37;;;0.10;99.90;;;;;;5100225;28;20867;-81
2021/11/09 06:40:46;;;;;;;21.77;19.97;;;0.00;99.90;;;;;;5095520;28;21088;-81
2021/11/09 06:43:13;;;;;;;21.43;19.80;;;0.10;99.90;;;;;;5097398;28;20452;-82
2021/11/09 06:45:40;;;;;;;21.33;19.73;;;0.00;99.90;;;;;;5103534;28;20987;-80
2021/11/09 06:48:07;;;;;;;20.97;19.23;;;-0.10;99.90;;;;;;5099400;28;20431;-81
2021/11/09 06:50:35;;;;;;;22.07;19.77;;;-0.10;99.90;;;;;;5096703;28;20443;-81
2021/11/09 06:53:03;;;;;;;21.50;19.27;;;-0.10;99.90;;;;;;5102139;28;20967;-80
2021/11/09 06:55:34;;;;;;;20.90;19.20;;;-0.20;99.90;;;;;;5104454;28;20482;-80
2021/11/09 06:58:01;;;;;;;22.27;20.17;;;-0.30;99.90;;;;;;5098456;28;20471;-81
2021/11/09 07:00:28;;;;;;;23.43;20.93;;;-0.30;99.90;;;;;;5096144;28;20445;-80
2021/11/09 07:02:54;;;;;;;23.40;21.30;;;-0.20;99.90;;;;;;5104214;27;20577;-81
2021/11/09 07:05:22;;;;;;;23.83;21.53;;;-0.10;99.90;;;;;;5100934;28;20439;-81
2021/11/09 07:07:49;;;;;;;24.03;21.60;;;0.00;99.90;;;;;;5097779;28;20546;-80
2021/11/09 07:10:17;;;;;;;22.87;20.80;;;0.00;99.90;;;;;;5096390;28;20545;-80
2021/11/09 07:12:45;;;;;;;22.93;21.13;;;0.20;99.90;;;;;;5104194;28;20438;-80
2021/11/09 07:15:13;;;;;;;23.00;21.10;;;0.10;99.90;;;;;;5111267;28;20459;-81
2021/11/09 07:17:40;;;;;;;21.87;20.13;;;0.10;99.90;;;;;;5115559;28;20463;-78
2021/11/09 07:20:09;;;;;;;22.63;20.73;;;0.30;99.90;;;;;;5098533;28;20474;-81
2021/11/09 07:22:37;;;;;;;22.70;20.60;;;0.40;99.90;;;;;;5102669;28;20450;-81
2021/11/09 07:25:04;;;;;;;22.57;20.57;;;0.40;99.90;;;;;;5100824;28;20438;-80
2021/11/09 07:27:32;;;;;;;21.33;19.57;;;0.40;99.90;;;;;;5096704;28;20469;-80
2021/11/09 07:30:02;;;;;;;20.30;18.80;;;0.40;99.90;;;;;;5102066;28;20443;-81
2021/11/09 07:32:29;;;;;;;20.33;18.70;;;0.50;99.90;;;;;;5101813;28;20437;-81
2021/11/09 07:34:56;;;;;;;20.47;18.67;;;0.50;99.90;;;;;;5098148;28;20468;-81
2021/11/09 07:37:23;;;;;;;20.63;18.83;;;0.60;99.90;;;;;;5097157;28;20541;-80
2021/11/09 07:39:50;;;;;;;21.17;19.53;;;0.70;99.90;;;;;;5090850;28;20448;-81
2021/11/09 07:42:18;;;;;;;20.67;18.97;;;0.70;99.90;;;;;;5093659;28;20453;-80
2021/11/09 07:44:47;;;;;;;20.13;18.63;;;0.70;99.90;;;;;;5101871;28;20430;-81
2021/11/09 07:47:14;;;;;;;20.57;18.93;;;0.80;99.90;;;;;;5095022;28;20457;-82
2021/11/09 07:49:42;;;;;;;20.00;18.27;;;0.70;99.90;;;;;;5105135;28;20428;-81
2021/11/09 07:52:10;;;;;;;20.97;18.97;;;0.70;99.90;;;;;;5100290;28;20448;-81
2021/11/09 07:54:39;;;;;;;22.07;20.23;;;0.80;99.90;;;;;;5107273;28;20514;-81
2021/11/09 07:57:09;;;;;;;20.00;18.43;;;1.00;99.90;;;;;;5098383;28;20450;-81
2021/11/09 07:59:40;;;;;;;19.93;18.37;;;1.00;99.90;;;;;;5092560;28;20449;-82
2021/11/09 08:02:12;;;;;;;20.87;19.20;;;1.10;99.90;;;;;;5097897;28;20973;-82
2021/11/09 08:04:45;;;;;;;20.47;18.77;;;1.20;99.90;;;;;;5099368;28;20440;-81
2021/11/09 08:07:15;;;;;;;20.87;19.17;;;1.30;99.90;;;;;;5095856;28;20926;-80
2021/11/09 08:09:42;;;;;;;20.20;18.60;;;1.40;99.90;;;;;;5105644;28;20442;-82
2021/11/09 08:12:09;;;;;;;21.27;19.57;;;1.50;99.90;;;;;;5102043;28;20433;-81
2021/11/09 08:14:37;;;;;;;20.43;18.83;;;1.50;99.90;;;;;;5103949;28;20440;-82
2021/11/09 08:17:04;;;;;;;20.80;19.10;;;1.60;99.90;;;;;;5098270;28;20472;-81
2021/11/09 08:19:32;;;;;;;20.53;18.93;;;1.70;99.90;;;;;;5094260;28;20463;-81
2021/11/09 08:22:00;;;;;;;20.70;19.07;;;1.70;99.90;;;;;;5099663;28;20445;-82
2021/11/09 08:24:27;;;;;;;19.53;18.03;;;1.70;99.90;;;;;;5099935;28;20873;-81
2021/11/09 08:26:57;;;;;;;20.17;18.63;;;1.80;99.90;;;;;;5102754;28;20472;-82
2021/11/09 08:29:25;;;;;;;20.43;18.73;;;1.90;99.90;;;;;;5095935;28;20429;-82
2021/11/09 08:31:54;;;;;;;19.43;17.93;;;1.80;99.90;;;;;;5099027;28;20449;-81
2021/11/09 08:34:21;;;;;;;18.47;17.07;;;1.80;99.90;;;;;;5099739;28;20458;-80
2021/11/09 08:36:50;;;;;;;20.20;18.37;;;1.90;99.90;;;;;;5094511;28;20799;-80
2021/11/09 08:39:22;;;;;;;20.53;18.83;;;1.90;99.90;;;;;;5095597;28;20479;-81
2021/11/09 08:41:57;;;;;;;20.40;18.80;;;2.00;99.90;;;;;;5104513;28;20476;-81
2021/11/09 08:44:26;;;;;;;19.57;18.03;;;2.10;99.90;;;;;;5107862;28;20451;-81
2021/11/09 08:46:58;;;;;;;20.80;19.20;;;2.30;99.90;;;;;;5115695;28;20831;-81
2021/11/09 08:49:27;;;;;;;20.03;18.43;;;2.30;99.90;;;;;;5098918;28;20449;-82
2021/11/09 08:51:57;;;;;;;19.93;18.37;;;2.20;99.90;;;;;;5098685;28;20452;-82
2021/11/09 08:54:28;;;;;;;20.07;18.47;;;2.30;99.90;;;;;;5096541;28;20467;-81
2021/11/09 08:57:12;;;;;;;20.50;18.80;;;2.50;99.90;;;;;;5095308;28;20479;-81
2021/11/09 09:05:13;;;;;;;20.30;18.60;;;2.50;99.90;;;;;;5098494;28;20418;-82
2021/11/09 09:07:42;;;;;;;19.63;18.00;;;2.60;99.90;;;;;;5094037;28;20496;-82
2021/11/09 09:10:12;;;;;;;21.20;19.33;;;2.70;99.90;;;;;;5097958;28;20458;-80
2021/11/09 09:12:42;;;;;;;19.73;18.20;;;2.80;99.90;;;;;;5102849;28;20453;-80
2021/11/09 09:15:11;;;;;;;21.10;19.20;;;2.90;99.90;;;;;;5101035;28;20530;-81
2021/11/09 09:17:38;;;;;;;20.07;18.40;;;3.00;99.90;;;;;;5095491;28;20480;-82
2021/11/09 09:20:10;;;;;;;19.30;17.80;;;3.00;99.90;;;;;;5099866;28;20951;-82
2021/11/09 09:22:40;;;;;;;20.30;18.77;;;3.20;99.90;;;;;;5105756;28;20483;-79
2021/11/09 09:25:23;;;;;;;21.57;19.70;;;3.40;99.90;;;;;;5101645;28;20515;-81
2021/11/09 09:30:58;;;;;;;19.97;18.37;;;3.50;99.90;;;;;;5019931;28;20438;-81
2021/11/09 09:33:36;;;;;;;20.63;18.80;;;3.50;99.90;;;;;;5089487;28;20955;-80
2021/11/09 09:52:38;;;;;;;21.83;19.93;;;3.60;99.90;;;;;;5099720;28;20425;-80
2021/11/09 09:55:20;;;;;;;22.10;20.20;;;3.70;99.90;;;;;;5103662;28;20468;-81
2021/11/09 09:57:49;;;;;;;22.00;20.07;;;3.70;99.90;;;;;;5107273;28;20476;-81
2021/11/09 10:00:17;;;;;;;21.73;19.80;;;3.80;99.90;;;;;;5099744;28;20951;-81
2021/11/09 10:02:51;;;;;;;22.47;20.47;;;3.80;99.90;;;;;;5100907;28;20616;-81
2021/11/09 10:05:19;;;;;;;20.20;18.70;;;3.90;99.90;;;;;;5088478;28;20198;-80
2021/11/09 10:07:50;;;;;;;21.43;19.67;;;4.10;99.90;;;;;;5110565;28;20467;-81
2021/11/09 10:10:19;;;;;;;21.33;19.63;;;4.20;99.90;;;;;;5098123;28;20212;-81
2021/11/09 10:12:55;;;;;;;21.60;19.80;;;4.30;99.90;;;;;;5099660;28;20202;-80
2021/11/09 10:15:26;;;;;;;21.40;19.60;;;4.30;99.90;;;;;;5098735;28;20464;-81
2021/11/09 10:17:56;;;;;;;21.67;19.87;;;4.40;99.90;;;;;;5094293;28;20690;-80
2021/11/09 10:20:25;;;;;;;21.83;20.03;;;4.50;99.90;;;;;;5099704;28;20190;-80
2021/11/09 10:22:55;;;;;;;20.77;19.10;;;4.50;99.90;;;;;;5101403;28;20259;-80
2021/11/09 10:25:23;;;;;;;22.13;20.17;;;4.60;99.90;;;;;;5098636;28;20196;-81
2021/11/09 10:27:54;;;;;;;19.97;18.43;;;4.60;99.90;;;;;;5094694;28;20248;-80
2021/11/09 10:30:25;;;;;;;20.53;18.93;;;4.70;99.90;;;;;;5108305;28;20200;-80
2021/11/09 10:32:53;;;;;;;20.87;19.20;;;4.70;99.90;;;;;;5109144;27;20260;-81
2021/11/09 10:35:22;;;;;;;20.50;18.53;;;4.80;99.90;;;;;;5075705;28;20226;-80
2021/11/09 10:37:51;;;;;;;19.50;17.70;;;4.90;99.90;;;;;;5074996;28;20644;-81
2021/11/09 10:40:22;;;;;;;21.53;19.43;;;5.00;99.90;;;;;;5076390;28;20187;-81
2021/11/09 10:42:54;;;;;;;21.13;19.27;;;4.90;99.90;;;;;;5106671;28;20280;-80
2021/11/09 10:45:23;;;;;;;20.67;19.07;;;5.00;99.90;;;;;;5100143;28;20213;-81
2021/11/09 10:47:52;;;;;;;21.13;19.17;;;5.10;99.90;;;;;;5234072;22;20206;-81
2021/11/09 10:50:22;;;;;;;21.53;19.53;;;5.10;99.90;;;;;;5091504;28;20228;-80
2021/11/09 10:53:01;;;;;;;21.40;19.50;;;5.20;99.90;;;;;;5088887;28;20259;-80
2021/11/09 10:55:34;;;;;;;11.57;9.57;;;5.30;99.90;;;;;;5084362;28;20267;-79
2021/11/09 10:58:26;;;;;;;13.07;10.73;;;5.50;99.90;;;;;;5086950;28;20313;-79
2021/11/09 11:03:58;;;;;;;15.13;11.50;;;5.60;99.90;;;;;;5076357;28;20186;-80
2021/11/09 11:06:27;;;;;;;19.63;17.67;;;5.70;99.90;;;;;;5085928;28;20244;-80
2021/11/09 11:08:58;;;;;;;14.97;12.37;;;5.80;99.90;;;;;;5083609;28;20229;-80
2021/11/09 11:11:27;;;;;;;20.37;18.57;;;5.90;99.90;;;;;;5087318;28;20220;-79
2021/11/09 11:14:07;;;;;;;19.00;17.30;;;6.10;99.90;;;;;;5083161;28;20260;-80
2021/11/09 11:16:41;;;;;;;17.37;15.77;;;6.20;99.90;;;;;;5076311;28;20199;-80
2021/11/09 11:19:07;;;;;;;16.63;15.27;;;6.30;99.90;;;;;;5083678;28;20249;-79
2021/11/09 11:21:35;;;;;;;19.60;17.70;;;6.40;99.90;;;;;;5090619;28;20201;-80
2021/11/09 11:24:02;;;;;;;18.43;16.60;;;6.50;99.90;;;;;;5080520;28;20202;-80
2021/11/09 11:26:30;;;;;;;15.73;14.23;;;6.70;99.90;;;;;;5088813;28;20191;-80
2021/11/09 11:28:58;;;;;;;15.97;14.30;;;6.70;99.90;;;;;;5083847;28;20651;-80
2021/11/09 11:31:27;;;;;;;17.87;16.23;;;6.80;99.90;;;;;;5077685;28;20203;-79
2021/11/09 11:33:54;;;;;;;13.40;12.10;;;7.00;99.90;;;;;;5080795;28;20202;-80
2021/11/09 11:36:21;;;;;;;15.17;13.70;;;7.00;99.90;;;;;;5084518;28;20214;-79
2021/11/09 11:38:53;;;;;;;13.77;12.57;;;7.10;99.90;;;;;;5080711;28;20222;-80
2021/11/09 11:41:21;;;;;;;12.00;10.60;;;7.30;99.90;;;;;;5081442;28;20248;-80
2021/11/09 11:44:00;;;;;;;17.63;16.20;;;7.40;99.90;;;;;;5085817;28;20192;-80
2021/11/09 11:46:48;;;;;;;18.63;17.13;;;7.40;99.90;;;;;;5086390;28;20193;-80
2021/11/09 11:49:25;;;;;;;16.20;14.70;;;7.60;99.90;;;;;;5085679;28;20230;-80
2021/11/09 11:52:13;;;;;;;16.27;12.10;;;7.70;99.90;;;;;;5100883;28;20198;-80
2021/11/09 11:54:45;;;;;;;12.33;11.20;;;7.80;99.90;;;;;;5083522;28;20307;-80
2021/11/09 11:57:31;;;;;;;10.67;8.70;;;7.90;99.90;;;;;;5083718;28;20221;-80
2021/11/09 12:00:00;;;;;;;8.60;7.00;;;8.00;99.90;;;;;;5081526;28;20664;-80
2021/11/09 12:02:35;;;;;;;8.83;7.40;;;8.10;99.90;;;;;;5084054;28;20183;-81
2021/11/09 12:05:03;;;;;;;10.07;7.80;;;8.20;99.90;;;;;;5084273;28;20191;-80
2021/11/09 12:07:53;;;;;;;8.20;7.40;;;8.20;99.90;;;;;;5082664;28;20197;-80
2021/11/09 12:10:21;;;;;;;11.57;9.23;;;8.30;99.90;;;;;;5096367;28;20238;-81
2021/11/09 12:13:01;;;;;;;15.07;13.70;;;8.40;99.90;;;;;;5086466;28;20227;-81
2021/11/09 12:15:48;;;;;;;11.67;10.57;;;8.50;99.90;;;;;;5088196;28;20192;-80
2021/11/09 12:18:41;;;;;;;13.97;12.70;;;8.60;99.90;;;;;;5089602;28;20685;-80
2021/11/09 12:21:35;;;;;;;12.97;11.67;;;8.70;99.90;;;;;;5086777;28;20204;-80
2021/11/09 12:24:13;;;;;;;12.10;11.07;;;8.70;99.90;;;;;;5088415;28;20568;-81
2021/11/09 12:26:41;;;;;;;16.77;11.70;;;8.90;99.90;;;;;;5090540;28;20295;-81
2021/11/09 12:29:39;;;;;;;11.77;10.87;;;9.00;99.90;;;;;;5085318;28;20578;-81
2021/11/09 12:32:35;;;;;;;7.53;4.13;;;9.10;99.90;;;;;;5085781;28;20200;-81
2021/11/09 12:35:06;;;;;;;7.20;3.93;;;9.20;99.90;;;;;;5086500;28;20208;-81
2021/11/09 12:37:35;;;;;;;7.77;4.17;;;9.40;99.90;;;;;;5083827;28;20221;-81
2021/11/09 12:40:29;;;;;;;4.70;3.77;;;9.40;99.90;;;;;;5084910;28;20198;-80
2021/11/09 12:43:12;;;;;;;4.93;4.47;;;9.50;99.90;;;;;;5102375;28;20225;-80
2021/11/09 12:45:41;;;;;;;12.37;11.40;;;9.60;99.90;;;;;;5082287;28;20207;-81
2021/11/09 12:48:11;;;;;;;13.23;12.07;;;9.70;99.90;;;;;;5080199;28;20218;-80
2021/11/09 12:50:44;;;;;;;7.67;4.17;;;9.70;99.90;;;;;;5082445;28;20726;-80
2021/11/09 12:53:13;;;;;;;8.57;4.37;;;9.70;99.90;;;;;;5081258;28;20248;-80
2021/11/09 12:55:41;;;;;;;6.00;4.47;;;9.70;99.90;;;;;;5089460;28;20238;-81
2021/11/09 12:58:21;;;;;;;6.03;4.13;;;9.80;99.90;;;;;;5089296;28;20217;-80
2021/11/09 13:01:11;;;;;;;4.93;4.43;;;9.80;99.90;;;;;;5087210;28;20208;-80
2021/11/09 13:03:45;;;;;;;5.20;4.27;;;9.80;99.90;;;;;;5086217;28;20212;-80
2021/11/09 13:06:41;;;;;;;5.37;4.10;;;9.90;99.90;;;;;;5084463;28;20284;-80
2021/11/09 13:09:15;;;;;;;11.43;9.73;;;9.90;99.90;;;;;;5087101;28;20261;-81
2021/11/09 13:11:46;;;;;;;13.20;12.20;;;9.80;99.90;;;;;;5087352;28;20259;-81
2021/11/09 13:14:13;;;;;;;11.90;11.10;;;9.90;99.90;;;;;;5087911;28;20197;-80
2021/11/09 13:16:45;;;;;;;11.20;10.30;;;9.90;99.90;;;;;;5091860;28;20225;-80
2021/11/09 13:19:13;;;;;;;10.03;8.97;;;9.90;99.90;;;;;;5084855;28;20225;-80
2021/11/09 13:21:41;;;;;;;11.57;10.83;;;10.00;99.90;;;;;;5087634;28;20289;-81
2021/11/09 13:24:16;;;;;;;12.70;11.80;;;9.90;99.90;;;;;;5087979;28;20739;-80
2021/11/09 13:26:52;;;;;;;13.53;12.50;;;9.90;99.90;;;;;;5086607;28;20198;-81
2021/11/09 13:29:18;;;;;;;16.13;11.87;;;10.00;99.90;;;;;;5083750;28;20213;-80
2021/11/09 13:31:46;;;;;;;15.30;14.10;;;9.90;99.90;;;;;;5075560;28;20205;-81
2021/11/09 13:34:14;;;;;;;13.40;12.37;;;9.90;99.90;;;;;;5078796;28;20289;-81
2021/11/09 13:36:41;;;;;;;13.17;12.17;;;9.90;99.90;;;;;;5087789;28;20220;-80
2021/11/09 13:39:08;;;;;;;14.93;13.67;;;9.90;99.90;;;;;;5086676;28;20222;-80
2021/11/09 13:41:35;;;;;;;15.13;13.93;;;9.90;99.90;;;;;;5085262;28;20198;-80
2021/11/09 13:44:08;;;;;;;16.00;14.40;;;9.80;99.90;;;;;;5089891;28;20201;-81
2021/11/09 13:46:39;;;;;;;15.97;14.60;;;9.90;99.90;;;;;;5091141;28;20243;-80
2021/11/09 13:49:09;;;;;;;15.00;13.80;;;9.80;99.90;;;;;;5089401;28;20213;-80
2021/11/09 13:51:43;;;;;;;15.10;14.00;;;9.80;99.90;;;;;;5086528;28;20209;-81
2021/11/09 13:54:17;;;;;;;16.30;14.80;;;9.80;99.90;;;;;;5086562;28;20239;-80
2021/11/09 13:56:46;;;;;;;14.43;13.37;;;9.70;99.90;;;;;;5085087;28;20259;-80
2021/11/09 13:59:16;;;;;;;14.33;13.07;;;9.80;99.90;;;;;;5089449;28;20223;-81
2021/11/09 14:01:51;;;;;;;14.23;13.13;;;9.80;99.90;;;;;;5085158;28;20198;-80
2021/11/09 14:04:38;;;;;;;13.57;12.73;;;9.70;99.90;;;;;;5085972;28;20274;-81
2021/11/09 14:07:27;;;;;;;14.00;12.93;;;9.70;99.90;;;;;;5080903;28;20198;-81
2021/11/09 14:15:45;;;;;;;13.20;12.30;;;9.80;99.90;;;;;;5066544;28;20262;-83
2021/11/09 14:18:14;;;;;;;13.50;12.43;;;9.70;99.90;;;;;;5091213;28;20302;-82
2021/11/09 14:20:51;;;;;;;13.90;12.80;;;9.80;99.90;;;;;;5075914;28;20203;-82
2021/11/09 14:23:28;;;;;;;14.37;13.10;;;9.80;99.90;;;;;;5083157;28;20193;-82
2021/11/09 14:25:56;;;;;;;14.23;13.00;;;9.80;99.90;;;;;;5085486;28;20251;-82
2021/11/09 14:28:38;;;;;;;13.07;12.17;;;9.70;99.90;;;;;;5086966;28;20239;-82
2021/11/09 14:31:17;;;;;;;13.63;12.63;;;9.70;99.90;;;;;;5092001;28;20580;-82
2021/11/09 14:33:46;;;;;;;14.53;13.13;;;9.70;99.90;;;;;;5086059;28;20183;-82
2021/11/09 14:36:25;;;;;;;13.83;12.73;;;9.70;99.90;;;;;;5086061;28;20203;-82
2021/11/09 14:39:13;;;;;;;13.40;12.40;;;9.70;99.90;;;;;;5100980;28;20221;-82